Vandenberg Air Force Base
KVBG : now visible

Airfield :











YOU CAN JOIN US ON...

 
LOGIN :

Register | Disclaimer

   EN    FR    IT 

 









Legend :    VFR   Marginal VFR   IFR   Intensive IFR   Very Intensive IFR
Visi :
Ceiling :
>= 8 km
>= 3000ft
5 to 8 km
1000 to 3000 ft
1500m to 5 km
500 to 1000 ft
800 to 1500m
200 to 500 ft
< 800m
< 200 ft
Symbols :   Thunderstorms  Fog  Heavy snow  Heavy precipitations  Wind > 20 kt






- Airport Elevation : 369 ft


KVBG - Vandenberg Air Force Base

CURRENT METAR :
  • 030058Z AUTO 01020KT 9SM CLR 13/08 A3002 RMK AO2 PK WND 36029/09 SLP170 T01320075 $

EXPIRED METARs :
  • 022358Z 36020G29KT 10SM FEW008 14/09 A3002 RMK AO2A PK WND 35029/47 SLP169 T01390085 10170 20139 58000 $

TAF TAF KVBG
Valid from the 02 at 22:00 until the 04 at 04:00 UTC


022204Z 0222/0404 35012G22KT 9999 SKC 510005 QNH3001INS
BECMG 0302/0303 36012KT 9999 SKC QNH2999INS
BECMG 0319/0320 33012G20KT 9999 SKC 510005 QNH3003INS
BECMG 0402/0403 36010KT 9999 FEW250 QNH3004INS TX18/0320Z TN02/0314Z LAST NO AMDS AFT 0300 NEXT 0314



MET'MAP, your aeronautical weather chart ! - Copyright ORBIFLY December 2007 - Disclaimer

ORBIFLY MET'MAP TEAM :

Programming & Development : Alexandra Zaïnal
Concept & original design : Baudouin d'Aumeries
Assistance for programming : Marc-Olivier Méhu
Technical & hardware support : Manuel Goepfert

Contact : metmap@orbifly.com




SOURCES & CREDITS :

   NOAA       Earth
Advisory